createdAt,value
2022-11-25T00:01:10.292Z,100787.41
2022-11-25T00:03:37.255Z,100784.91
2022-11-25T00:06:21.347Z,100758.84
2022-11-25T00:08:50.925Z,100783.97
2022-11-25T00:11:18.193Z,100785.69
2022-11-25T00:13:46.704Z,100788.25
2022-11-25T00:16:16.212Z,100783.34
2022-11-25T00:18:53.821Z,100768.75
2022-11-25T00:21:27.195Z,100742.97
2022-11-25T00:23:56.117Z,100766.06
2022-11-25T00:26:25.052Z,100755.44
2022-11-25T00:28:52.539Z,100741.34
2022-11-25T00:31:25.419Z,100740.59
2022-11-25T00:33:52.774Z,100740.06
2022-11-25T00:36:23.305Z,100754.03
2022-11-25T00:39:01.509Z,100755.41
2022-11-25T00:41:48.002Z,100720.13
2022-11-25T00:44:35.278Z,100739.13
2022-11-25T00:47:04.159Z,100762.22
2022-11-25T00:49:31.458Z,100740.88
2022-11-25T00:51:58.247Z,100739.81
2022-11-25T00:54:25.300Z,100749.66
2022-11-25T00:56:55.259Z,100748.69
2022-11-25T00:59:22.270Z,100702.88
2022-11-25T01:01:50.192Z,100706.19
2022-11-25T01:04:17.217Z,100730.44
2022-11-25T01:06:44.270Z,100727.03
2022-11-25T01:09:12.816Z,100729.91
2022-11-25T01:11:40.012Z,100748.06
2022-11-25T01:14:07.351Z,100733.19
2022-11-25T01:16:34.037Z,100728.81
2022-11-25T01:19:01.953Z,100716.66
2022-11-25T01:21:31.878Z,100736.63
2022-11-25T01:24:02.586Z,100740.03
2022-11-25T01:26:30.358Z,100722.41
2022-11-25T01:29:00.308Z,100734.44
2022-11-25T01:31:32.302Z,100716.28
2022-11-25T01:34:12.247Z,100720.91
2022-11-25T01:36:38.927Z,100724.63
2022-11-25T01:39:06.313Z,100698.78
2022-11-25T01:41:34.511Z,100732.84
2022-11-25T01:44:15.189Z,100727.25
2022-11-25T01:46:56.846Z,100728.09
2022-11-25T01:49:46.541Z,100724.38
2022-11-25T01:52:36.223Z,100717.16
2022-11-25T01:55:08.245Z,100726.97
2022-11-25T01:57:36.509Z,100699.97
2022-11-25T02:00:05.665Z,100716.47
2022-11-25T02:02:32.773Z,100707.75
2022-11-25T02:05:01.958Z,100712.53
2022-11-25T02:07:35.509Z,100706.22
2022-11-25T02:10:06.508Z,100727.00
2022-11-25T02:12:35.773Z,100678.75
2022-11-25T02:15:03.971Z,100700.78
2022-11-25T02:17:30.729Z,100720.16
2022-11-25T02:20:04.046Z,100723.16
2022-11-25T02:22:53.553Z,100727.53
2022-11-25T02:25:24.346Z,100707.75
2022-11-25T02:28:15.681Z,100722.63
2022-11-25T02:30:43.321Z,100718.38
2022-11-25T02:33:10.663Z,100710.06
2022-11-25T02:35:40.050Z,100721.13
2022-11-25T02:38:15.665Z,100727.94
2022-11-25T02:41:13.623Z,100708.56
2022-11-25T02:43:41.445Z,100716.47
2022-11-25T02:46:21.850Z,100711.28
2022-11-25T02:51:37.543Z,100717.00
2022-11-25T02:54:04.537Z,100697.34
2022-11-25T02:56:34.328Z,100714.72
2022-11-25T02:59:02.318Z,100711.41
2022-11-25T03:01:30.085Z,100682.88
2022-11-25T03:03:57.053Z,100679.16
2022-11-25T03:06:24.195Z,100711.97
2022-11-25T03:08:50.882Z,100700.06
2022-11-25T03:11:17.777Z,100645.00
2022-11-25T03:13:44.787Z,100609.19
2022-11-25T03:16:11.817Z,100578.22
2022-11-25T03:18:38.593Z,100684.34
2022-11-25T03:21:05.412Z,100708.97
2022-11-25T03:23:32.225Z,100693.09
2022-11-25T03:25:59.202Z,100648.28
2022-11-25T03:28:25.905Z,100692.28
2022-11-25T03:30:52.753Z,100704.44
2022-11-25T03:33:19.412Z,100708.81
2022-11-25T03:35:48.060Z,100705.25
2022-11-25T03:38:14.752Z,100645.19
2022-11-25T03:40:41.498Z,100703.22
2022-11-25T03:43:08.139Z,100712.25
2022-11-25T03:45:34.991Z,100716.47
2022-11-25T03:48:01.646Z,100705.81
2022-11-25T03:50:28.355Z,100709.09
2022-11-25T03:52:55.139Z,100699.97
2022-11-25T03:55:21.777Z,100714.56
2022-11-25T03:57:48.544Z,100713.19
2022-11-25T04:00:15.566Z,100720.44
2022-11-25T04:02:42.344Z,100726.88
2022-11-25T04:05:09.245Z,100715.53
2022-11-25T04:07:36.191Z,100720.56
2022-11-25T04:10:03.262Z,100716.22
2022-11-25T04:12:48.404Z,100729.31
2022-11-25T04:15:16.919Z,100742.16
2022-11-25T04:17:43.960Z,100717.28
2022-11-25T04:20:12.832Z,100709.78
2022-11-25T04:22:39.987Z,100743.38
2022-11-25T04:25:07.598Z,100710.47
2022-11-25T04:27:34.567Z,100736.72
2022-11-25T04:30:01.203Z,100731.22
2022-11-25T04:32:28.105Z,100724.97
2022-11-25T04:34:54.993Z,100702.28
2022-11-25T04:37:21.882Z,100734.94
2022-11-25T04:39:48.795Z,100731.63
2022-11-25T04:42:34.913Z,100726.84
2022-11-25T04:45:23.365Z,100752.44
2022-11-25T04:47:51.383Z,100715.94
2022-11-25T04:50:20.735Z,100742.03
2022-11-25T04:52:47.371Z,100743.69
2022-11-25T04:55:14.229Z,100738.34
2022-11-25T04:57:41.209Z,100753.22
2022-11-25T05:00:09.610Z,100742.03
2022-11-25T05:02:36.521Z,100761.16
2022-11-25T05:05:03.757Z,100778.50
2022-11-25T05:07:30.704Z,100779.19
2022-11-25T05:09:57.772Z,100782.63
2022-11-25T05:12:27.334Z,100731.78
2022-11-25T05:14:54.145Z,100746.94
2022-11-25T05:17:23.767Z,100757.22
2022-11-25T05:19:51.128Z,100764.69
2022-11-25T05:22:20.431Z,100768.56
2022-11-25T05:24:47.507Z,100774.56
2022-11-25T05:27:14.832Z,100703.91
2022-11-25T05:29:41.481Z,100700.50
2022-11-25T05:32:09.109Z,100725.63
2022-11-25T05:34:36.041Z,100756.78
2022-11-25T05:37:02.895Z,100739.44
2022-11-25T05:39:30.206Z,100686.97
2022-11-25T05:41:56.868Z,100735.34
2022-11-25T05:44:23.642Z,100734.78
2022-11-25T05:46:50.839Z,100762.09
2022-11-25T05:49:18.771Z,100763.34
2022-11-25T05:51:45.858Z,100756.09
2022-11-25T05:54:12.872Z,100758.28
2022-11-25T05:56:40.219Z,100740.41
2022-11-25T05:59:07.547Z,100757.72
2022-11-25T06:01:34.814Z,100736.84
2022-11-25T06:04:02.386Z,100753.09
2022-11-25T06:06:29.499Z,100765.13
2022-11-25T06:08:56.558Z,100740.53
2022-11-25T06:11:25.693Z,100743.69
2022-11-25T06:13:58.361Z,100761.56
2022-11-25T06:16:25.880Z,100771.28
2022-11-25T06:18:52.747Z,100746.00
2022-11-25T06:21:19.973Z,100795.19
2022-11-25T06:23:46.824Z,100762.53
2022-11-25T06:26:19.731Z,100803.28
2022-11-25T06:28:47.359Z,100785.50
2022-11-25T06:31:17.233Z,100783.72
2022-11-25T06:33:47.040Z,100777.00
2022-11-25T06:36:17.446Z,100799.44
2022-11-25T06:38:49.572Z,100819.09
2022-11-25T06:41:17.314Z,100792.47
2022-11-25T06:43:44.463Z,100800.25
2022-11-25T06:46:14.087Z,100788.09
2022-11-25T06:48:41.465Z,100828.53
2022-11-25T06:51:11.486Z,100827.31
2022-11-25T06:53:39.555Z,100804.47
2022-11-25T06:56:06.599Z,100840.56
2022-11-25T06:58:36.129Z,100833.72
2022-11-25T07:01:09.199Z,100848.78
2022-11-25T07:03:35.999Z,100824.56
2022-11-25T07:06:03.414Z,100789.19
2022-11-25T07:08:33.952Z,100838.66
2022-11-25T07:11:19.391Z,100857.91
2022-11-25T07:13:47.278Z,100807.75
2022-11-25T07:16:14.801Z,100859.56
2022-11-25T07:18:42.130Z,100840.69
2022-11-25T07:21:17.373Z,100821.84
2022-11-25T07:23:45.436Z,100874.31
2022-11-25T07:26:14.937Z,100857.94
2022-11-25T07:28:42.450Z,100875.28
2022-11-25T07:31:28.094Z,100863.38
2022-11-25T07:34:20.624Z,100885.50
2022-11-25T07:36:48.879Z,100891.69
2022-11-25T07:39:19.062Z,100886.09
2022-11-25T07:41:46.581Z,100898.91
2022-11-25T07:44:14.685Z,100884.84
2022-11-25T07:46:43.621Z,100895.22
2022-11-25T07:49:13.938Z,100900.53
2022-11-25T07:51:55.761Z,100908.78
2022-11-25T07:54:23.366Z,100892.66
2022-11-25T07:56:50.896Z,100872.66
2022-11-25T07:59:20.351Z,100884.84
2022-11-25T08:01:49.786Z,100900.13
2022-11-25T08:04:20.470Z,100860.06
2022-11-25T08:06:50.258Z,100907.41
2022-11-25T08:09:22.937Z,100807.19
2022-11-25T08:11:50.417Z,100919.34
2022-11-25T08:14:17.458Z,100931.09
2022-11-25T08:16:44.691Z,100911.25
2022-11-25T08:19:14.542Z,100900.56
2022-11-25T08:21:41.885Z,100942.13
2022-11-25T08:24:20.214Z,100932.53
2022-11-25T08:26:47.463Z,100935.25
2022-11-25T08:29:16.565Z,100925.94
2022-11-25T08:31:43.767Z,100928.66
2022-11-25T08:34:18.473Z,100924.81
2022-11-25T08:36:48.217Z,100920.56
2022-11-25T08:39:50.373Z,100950.34
2022-11-25T08:42:04.802Z,100935.16
2022-11-25T08:44:31.499Z,100934.56
2022-11-25T08:46:58.289Z,100917.41
2022-11-25T08:49:27.120Z,100959.44
2022-11-25T08:51:53.807Z,100941.41
2022-11-25T08:54:20.494Z,100922.53
2022-11-25T08:56:47.448Z,100899.88
2022-11-25T08:59:14.084Z,100955.34
2022-11-25T09:01:40.852Z,100953.13
2022-11-25T09:04:07.617Z,100932.91
2022-11-25T09:06:34.282Z,100954.59
2022-11-25T09:09:01.933Z,100939.84
2022-11-25T09:11:28.961Z,100890.91
2022-11-25T09:13:55.911Z,100985.09
2022-11-25T09:16:22.756Z,100862.50
2022-11-25T09:18:55.298Z,100974.59
2022-11-25T09:21:22.690Z,100976.66
2022-11-25T09:23:51.670Z,101006.47
2022-11-25T09:26:30.029Z,100993.50
2022-11-25T09:28:57.996Z,101005.81
2022-11-25T09:31:25.066Z,100978.84
2022-11-25T09:33:51.985Z,100993.88
2022-11-25T09:36:20.869Z,101011.03
2022-11-25T09:38:47.668Z,101014.47
2022-11-25T09:41:54.248Z,101015.72
2022-11-25T09:44:46.187Z,101006.25
2022-11-25T09:47:20.547Z,101018.72
2022-11-25T09:50:00.234Z,101020.97
2022-11-25T09:52:56.985Z,101022.72
2022-11-25T09:55:24.757Z,101017.63
2022-11-25T09:58:13.148Z,101019.09
2022-11-25T10:00:46.594Z,100981.63
2022-11-25T10:03:29.556Z,101011.94
2022-11-25T10:06:05.319Z,101013.75
2022-11-25T10:08:40.707Z,100992.72
2022-11-25T10:11:35.949Z,101041.31
2022-11-25T10:14:33.430Z,101045.66
2022-11-25T10:17:18.641Z,101043.19
2022-11-25T10:20:01.784Z,101046.47
2022-11-25T10:22:35.308Z,101032.53
2022-11-25T10:25:26.379Z,101038.97
2022-11-25T10:28:04.848Z,101004.88
2022-11-25T10:30:52.857Z,101066.16
2022-11-25T10:33:31.831Z,101076.75
2022-11-25T10:36:20.387Z,100885.16
2022-11-25T10:39:03.576Z,100951.72
2022-11-25T10:41:43.348Z,100859.63
2022-11-25T10:44:35.501Z,100905.91
2022-11-25T10:47:24.444Z,101074.16
2022-11-25T10:50:17.690Z,101079.06
2022-11-25T10:53:17.171Z,101072.31
2022-11-25T10:56:03.605Z,100968.78
2022-11-25T10:58:34.759Z,101027.44
2022-11-25T11:01:04.404Z,101013.41
2022-11-25T11:03:31.345Z,101055.03
2022-11-25T11:05:58.382Z,101066.47
2022-11-25T11:08:28.936Z,101073.91
2022-11-25T11:11:21.570Z,101074.09
2022-11-25T11:13:50.761Z,101066.91
2022-11-25T11:16:41.603Z,101077.78
2022-11-25T11:19:29.258Z,101058.69
2022-11-25T11:21:57.696Z,101074.44
2022-11-25T11:24:34.645Z,101081.69
2022-11-25T11:30:22.032Z,101102.47
2022-11-25T11:35:32.271Z,101085.94
2022-11-25T11:38:32.519Z,101108.53
2022-11-25T11:41:22.178Z,101083.34
2022-11-25T12:18:53.458Z,101150.09
2022-11-25T12:21:26.317Z,101144.97
2022-11-25T12:24:32.419Z,101060.25
2022-11-25T12:27:45.151Z,101153.63
2022-11-25T12:30:22.809Z,101060.16
2022-11-25T12:33:24.483Z,101117.53
2022-11-25T12:36:10.758Z,101157.25
2022-11-25T12:39:15.157Z,101153.63
2022-11-25T12:42:21.292Z,101162.09
2022-11-25T13:01:07.391Z,101175.16
2022-11-25T13:46:45.836Z,101257.00
2022-11-25T13:49:32.999Z,101247.81
2022-11-25T13:52:26.298Z,101252.00
2022-11-25T13:54:54.654Z,101254.34
2022-11-25T13:57:30.547Z,101266.66
2022-11-25T14:00:20.676Z,101249.31
2022-11-25T14:02:49.966Z,101239.28
2022-11-25T14:32:34.134Z,101245.78
2022-11-25T14:35:20.643Z,101295.00
2022-11-25T14:37:57.037Z,101295.97
2022-11-25T14:40:31.738Z,101282.19
2022-11-25T14:45:39.726Z,101307.41
2022-11-25T14:48:22.000Z,101286.53
2022-11-25T14:51:03.794Z,101286.25
2022-11-25T14:53:31.337Z,101302.22
2022-11-25T14:59:14.091Z,101335.50
2022-11-25T15:01:58.677Z,101143.50
2022-11-25T15:04:32.885Z,101170.44
2022-11-25T15:10:34.407Z,101360.88
2022-11-25T15:13:24.142Z,101280.00
2022-11-25T15:15:58.790Z,101127.03
2022-11-25T15:18:26.153Z,101259.63
2022-11-25T15:24:54.741Z,101369.34
2022-11-25T15:27:28.124Z,101373.72
2022-11-25T15:29:56.925Z,101363.53
2022-11-25T15:33:16.031Z,101381.38
2022-11-25T15:35:42.873Z,101364.44
2022-11-25T15:38:45.112Z,101388.88
2022-11-25T15:41:30.388Z,101365.47
2022-11-25T16:05:37.711Z,101420.97
2022-11-25T16:08:25.725Z,101442.00
2022-11-25T16:10:59.629Z,101447.38
2022-11-25T16:13:31.338Z,101412.13
2022-11-25T16:15:57.968Z,101458.94
2022-11-25T16:18:40.206Z,101456.47
2022-11-25T16:21:15.613Z,101461.38
2022-11-25T16:45:27.249Z,101463.00
2022-11-25T16:48:09.563Z,101344.63
2022-11-25T16:50:36.321Z,101337.91
2022-11-25T16:53:03.126Z,101315.03
2022-11-25T16:55:31.039Z,101400.78
2022-11-25T16:58:04.421Z,101333.66
2022-11-25T17:00:32.183Z,101293.31
2022-11-25T17:03:06.088Z,101361.50
2022-11-25T17:08:14.285Z,101379.22
2022-11-25T17:24:12.325Z,101553.59
2022-11-25T17:26:42.400Z,101558.69
2022-11-25T17:29:19.948Z,101567.75
2022-11-25T17:31:46.994Z,101551.66
2022-11-25T17:34:16.875Z,101575.03
2022-11-25T17:36:45.247Z,101571.75
2022-11-25T17:39:13.150Z,101563.91
2022-11-25T17:41:47.591Z,101576.41
2022-11-25T17:44:25.530Z,101551.69
2022-11-25T17:46:53.973Z,101590.16
2022-11-25T17:49:21.071Z,101592.50
2022-11-25T17:51:47.954Z,101588.25
2022-11-25T17:54:15.295Z,101591.97
2022-11-25T17:56:47.779Z,101588.63
2022-11-25T17:59:25.639Z,101607.06
2022-11-25T18:01:52.454Z,101610.75
2022-11-25T18:06:54.616Z,101570.69
2022-11-25T18:25:30.326Z,101650.03
2022-11-25T18:27:59.974Z,101646.03
2022-11-25T18:30:29.660Z,101651.50
2022-11-25T18:32:57.445Z,101640.72
2022-11-25T18:35:35.786Z,101665.59
2022-11-25T18:38:03.345Z,101647.34
2022-11-25T18:40:30.521Z,101639.47
2022-11-25T18:43:00.970Z,101669.22
2022-11-25T18:50:46.310Z,101660.13
2022-11-25T18:53:13.772Z,101568.56
2022-11-25T18:58:23.815Z,101545.28
2022-11-25T19:06:15.354Z,101657.72
2022-11-25T19:08:42.218Z,101704.34
2022-11-25T19:11:40.136Z,101709.56
2022-11-25T19:14:37.774Z,101717.38
2022-11-25T19:17:09.967Z,101707.19
2022-11-25T19:19:37.974Z,101690.19
2022-11-25T19:22:15.890Z,101691.19
2022-11-25T19:32:44.388Z,101726.59
2022-11-25T19:35:16.183Z,101613.63
2022-11-25T19:37:42.995Z,101672.22
2022-11-25T19:40:17.840Z,101537.34
2022-11-25T19:42:48.579Z,101721.38
2022-11-25T19:45:19.618Z,101550.59
2022-11-25T19:47:49.933Z,101540.78
2022-11-25T19:55:34.305Z,101639.09
2022-11-25T20:05:59.980Z,101646.53
2022-11-25T20:08:28.970Z,101746.44
2022-11-25T20:21:40.119Z,101746.47
2022-11-25T20:24:14.494Z,101741.50
2022-11-25T20:26:46.119Z,101758.19
2022-11-25T20:29:19.000Z,101847.53
2022-11-25T20:31:46.629Z,101822.03
2022-11-25T20:34:13.475Z,101844.63
2022-11-25T20:36:42.121Z,101816.97
2022-11-25T20:39:18.483Z,101814.81
2022-11-25T20:41:52.790Z,101851.72
2022-11-25T20:44:20.454Z,101802.03
2022-11-25T20:46:47.366Z,101854.06
2022-11-25T20:49:23.315Z,101867.69
2022-11-25T20:51:49.897Z,101867.56
2022-11-25T20:54:17.850Z,101847.19
2022-11-25T20:56:44.632Z,101833.91
2022-11-25T20:59:22.542Z,101875.63
2022-11-25T21:01:51.035Z,101838.38
2022-11-25T21:04:18.618Z,101790.47
2022-11-25T21:06:46.033Z,101846.47
2022-11-25T21:15:16.143Z,101753.66
2022-11-25T21:17:43.334Z,101805.88
2022-11-25T21:22:42.623Z,101866.13
2022-11-25T21:25:13.833Z,101877.34
2022-11-25T21:27:41.268Z,101828.22
2022-11-25T21:30:23.973Z,101813.69
2022-11-25T21:35:23.055Z,101858.50
2022-11-25T21:37:50.173Z,101871.78
2022-11-25T21:40:26.924Z,101917.59
2022-11-25T21:42:54.211Z,101899.69
2022-11-25T21:45:35.534Z,101867.97
2022-11-25T21:48:02.311Z,101951.69
2022-11-25T21:50:30.082Z,101943.41
2022-11-25T21:52:57.439Z,101932.09
2022-11-25T21:55:29.072Z,101935.63
2022-11-25T21:57:56.002Z,101901.22
2022-11-25T22:00:26.321Z,101937.63
2022-11-25T22:02:53.594Z,101947.50
2022-11-25T22:05:22.330Z,101950.19
2022-11-25T22:07:49.157Z,101957.38
2022-11-25T22:10:17.002Z,101976.06
2022-11-25T22:12:46.733Z,101967.13
2022-11-25T22:15:18.815Z,101933.91
2022-11-25T22:17:46.235Z,101954.47
2022-11-25T22:20:28.126Z,101978.16
2022-11-25T22:22:55.561Z,101963.19
2022-11-25T22:25:26.966Z,101925.81
2022-11-25T22:27:54.018Z,101946.66
2022-11-25T22:30:22.571Z,101975.53
2022-11-25T22:33:10.632Z,101942.59
2022-11-25T22:35:37.328Z,101994.44
2022-11-25T22:38:13.495Z,102010.22
2022-11-25T22:40:42.388Z,102025.50
2022-11-25T22:43:19.032Z,102022.16
2022-11-25T22:45:46.510Z,102015.72
2022-11-25T22:48:19.300Z,102006.16
2022-11-25T22:50:46.755Z,102034.53
2022-11-25T22:53:15.797Z,101984.97
2022-11-25T22:55:42.871Z,102027.53
2022-11-25T22:58:11.117Z,102047.59
2022-11-25T23:00:42.852Z,102046.97
2022-11-25T23:03:33.429Z,102053.28
2022-11-25T23:06:01.969Z,102057.06
2022-11-25T23:08:31.977Z,102042.19
2022-11-25T23:10:58.929Z,102046.84
2022-11-25T23:13:28.495Z,102021.81
2022-11-25T23:16:04.442Z,102040.31
2022-11-25T23:18:41.226Z,102055.59
2022-11-25T23:21:23.835Z,102033.97
2022-11-25T23:23:51.302Z,102000.91
2022-11-25T23:26:18.739Z,102069.91
2022-11-25T23:28:45.819Z,102071.56
2022-11-25T23:31:17.463Z,102056.31
2022-11-25T23:33:47.646Z,102075.81
2022-11-25T23:36:26.081Z,102064.59
2022-11-25T23:38:56.565Z,102070.94
2022-11-25T23:41:29.406Z,102047.16
2022-11-25T23:43:56.537Z,102033.09
2022-11-25T23:46:28.407Z,102082.69
2022-11-25T23:48:57.530Z,102041.16
2022-11-25T23:51:25.345Z,102087.41
2022-11-25T23:53:52.513Z,102049.16
2022-11-25T23:56:19.858Z,102058.41
2022-11-25T23:58:47.682Z,102089.81
